Observation data for Saint Lawrence on 06/20/2019      Previous  Date  Next       Current Mesonet Observations  Soil Data  Daily Summary Page  Observations in Plain Language
KST1 200500Z 19010KT 29/16 A2982 RMK A01 T02850160  RH  048%=      5-min Rain = 0
KST1 200505Z 19010KT 29/16 A2982 RMK A01 T02860163  RH  049%=      5-min Rain = 0
KST1 200510Z 19011KT 29/17 A2982 RMK A01 T02860165  RH  049%=      5-min Rain = 0
KST1 200515Z 20010KT 29/17 A2982 RMK A01 T02860165  RH  049%=      5-min Rain = 0
KST1 200520Z 19010KT 29/17 A2982 RMK A01 T02850166  RH  050%=      5-min Rain = 0
KST1 200525Z 20010KT 28/17 A2982 RMK A01 T02840167  RH  050%=      5-min Rain = 0
KST1 200530Z 20010KT 28/17 A2982 RMK A01 T02830168  RH  051%=      5-min Rain = 0
KST1 200535Z 19010KT 28/17 A2982 RMK A01 T02820169  RH  051%=      5-min Rain = 0
KST1 200540Z 20009KT 28/17 A2983 RMK A01 T02810170  RH  052%=      5-min Rain = 0
KST1 200545Z 20009KT 28/17 A2983 RMK A01 T02800170  RH  053%=      5-min Rain = 0
KST1 200550Z 20009KT 28/17 A2983 RMK A01 T02790171  RH  053%=      5-min Rain = 0
KST1 200555Z 20009KT 28/17 A2983 RMK A01 T02780172  RH  054%=      5-min Rain = 0
KST1 200600Z 19011KT 28/17 A2983 RMK A01 T02780173  RH  054%=      5-min Rain = 0
KST1 200605Z 19011KT 28/17 A2983 RMK A01 T02780174  RH  054%=      5-min Rain = 0
KST1 200610Z 19010KT 28/17 A2983 RMK A01 T02770174  RH  055%=      5-min Rain = 0
KST1 200615Z 19010KT 28/18 A2983 RMK A01 T02760175  RH  055%=      5-min Rain = 0
KST1 200620Z 20010KT 28/18 A2983 RMK A01 T02770175  RH  055%=      5-min Rain = 0
KST1 200625Z 20011KT 28/18 A2983 RMK A01 T02770176  RH  055%=      5-min Rain = 0
KST1 200630Z 19010KT 28/18 A2983 RMK A01 T02760176  RH  056%=      5-min Rain = 0
KST1 200635Z 19009KT 28/18 A2983 RMK A01 T02750176  RH  056%=      5-min Rain = 0
KST1 200640Z 19009KT 27/18 A2983 RMK A01 T02740177  RH  057%=      5-min Rain = 0
KST1 200645Z 19010KT 27/18 A2983 RMK A01 T02740177  RH  057%=      5-min Rain = 0
KST1 200650Z 19009KT 27/18 A2983 RMK A01 T02730178  RH  057%=      5-min Rain = 0
KST1 200655Z 19010KT 27/18 A2983 RMK A01 T02730178  RH  058%=      5-min Rain = 0
KST1 200700Z 19012KT 27/18 A2983 RMK A01 T02720178  RH  058%=      5-min Rain = 0
KST1 200705Z 19011KT 27/18 A2982 RMK A01 T02710178  RH  058%=      5-min Rain = 0
KST1 200710Z 20010G15KT 27/18 A2982 RMK A01 T02690178  RH  059%=      5-min Rain = 0
KST1 200715Z 20009KT 27/18 A2982 RMK A01 T02680178  RH  059%=      5-min Rain = 0
KST1 200720Z 20009KT 27/18 A2982 RMK A01 T02660178  RH  060%=      5-min Rain = 0
KST1 200725Z 20010KT 27/18 A2982 RMK A01 T02650178  RH  060%=      5-min Rain = 0
KST1 200730Z 20011KT 27/18 A2982 RMK A01 T02650178  RH  060%=      5-min Rain = 0
KST1 200735Z 20011KT 26/18 A2982 RMK A01 T02630178  RH  061%=      5-min Rain = 0
KST1 200740Z 20010KT 26/18 A2981 RMK A01 T02620177  RH  061%=      5-min Rain = 0
KST1 200745Z 21010KT 26/18 A2981 RMK A01 T02600177  RH  062%=      5-min Rain = 0
KST1 200750Z 21010KT 26/18 A2981 RMK A01 T02580176  RH  062%=      5-min Rain = 0
KST1 200755Z 21010KT 26/18 A2981 RMK A01 T02550176  RH  063%=      5-min Rain = 0
KST1 200800Z 21010KT 25/18 A2981 RMK A01 T02540175  RH  063%=      5-min Rain = 0
KST1 200805Z 21009KT 25/18 A2981 RMK A01 T02530176  RH  064%=      5-min Rain = 0
KST1 200810Z 21009KT 25/18 A2981 RMK A01 T02530176  RH  064%=      5-min Rain = 0
KST1 200815Z 21008KT 25/18 A2981 RMK A01 T02530175  RH  064%=      5-min Rain = 0
KST1 200820Z 21008KT 25/18 A2981 RMK A01 T02540175  RH  063%=      5-min Rain = 0
KST1 200825Z 21008KT 25/17 A2981 RMK A01 T02520174  RH  064%=      5-min Rain = 0
KST1 200830Z 20008KT 25/17 A2981 RMK A01 T02510174  RH  064%=      5-min Rain = 0
KST1 200835Z 20008KT 25/17 A2981 RMK A01 T02520174  RH  064%=      5-min Rain = 0
KST1 200840Z 20009KT 25/17 A2981 RMK A01 T02500174  RH  064%=      5-min Rain = 0
KST1 200845Z 20008KT 25/17 A2981 RMK A01 T02490173  RH  064%=      5-min Rain = 0
KST1 200850Z 20008KT 25/17 A2981 RMK A01 T02500172  RH  064%=      5-min Rain = 0
KST1 200855Z 20008KT 25/17 A2981 RMK A01 T02490172  RH  064%=      5-min Rain = 0
KST1 200900Z 20008KT 25/17 A2981 RMK A01 T02470172  RH  065%=      5-min Rain = 0
KST1 200905Z 20008KT 25/17 A2981 RMK A01 T02460171  RH  065%=      5-min Rain = 0
KST1 200910Z 20009KT 25/17 A2981 RMK A01 T02450171  RH  065%=      5-min Rain = 0
KST1 200915Z 20009KT 24/17 A2981 RMK A01 T02440172  RH  065%=      5-min Rain = 0
KST1 200920Z 19008KT 24/17 A2981 RMK A01 T02420171  RH  066%=      5-min Rain = 0
KST1 200925Z 18007KT 24/17 A2981 RMK A01 T02360169  RH  067%=      5-min Rain = 0
KST1 200930Z 18008KT 23/17 A2982 RMK A01 T02320168  RH  069%=      5-min Rain = 0
KST1 200935Z 18007KT 23/17 A2982 RMK A01 T02300167  RH  069%=      5-min Rain = 0
KST1 200940Z 18006KT 23/17 A2982 RMK A01 T02270165  RH  070%=      5-min Rain = 0
KST1 200945Z 18007KT 23/17 A2982 RMK A01 T02260166  RH  071%=      5-min Rain = 0
KST1 200950Z 19008KT 24/17 A2982 RMK A01 T02350170  RH  068%=      5-min Rain = 0
KST1 200955Z 19006KT 24/17 A2982 RMK A01 T02370168  RH  067%=      5-min Rain = 0
KST1 201000Z 18006KT 23/16 A2982 RMK A01 T02250163  RH  070%=      5-min Rain = 0
KST1 201005Z 18006KT 22/16 A2982 RMK A01 T02170160  RH  072%=      5-min Rain = 0
KST1 201010Z 18007KT 21/16 A2982 RMK A01 T02130158  RH  073%=      5-min Rain = 0
KST1 201015Z 18007KT 21/16 A2982 RMK A01 T02130159  RH  073%=      5-min Rain = 0
KST1 201020Z 19007KT 21/16 A2982 RMK A01 T02110158  RH  073%=      5-min Rain = 0
KST1 201025Z 19006KT 21/16 A2982 RMK A01 T02120161  RH  074%=      5-min Rain = 0
KST1 201030Z 20006KT 22/16 A2982 RMK A01 T02170164  RH  074%=      5-min Rain = 0
KST1 201035Z 20006KT 22/17 A2982 RMK A01 T02210165  RH  072%=      5-min Rain = 0
KST1 201040Z 20007KT 22/16 A2982 RMK A01 T02210164  RH  072%=      5-min Rain = 0
KST1 201045Z 21006KT 22/16 A2982 RMK A01 T02190162  RH  072%=      5-min Rain = 0
KST1 201050Z 21006KT 21/16 A2983 RMK A01 T02130160  RH  073%=      5-min Rain = 0
KST1 201055Z 23002KT 21/16 A2983 RMK A01 T02060156  RH  075%=      5-min Rain = 0
KST1 201100Z 32002KT 20/15 A2983 RMK A01 T01970154  RH  078%=      5-min Rain = 0
KST1 201105Z 25002KT 20/16 A2983 RMK A01 T01960158  RH  081%=      5-min Rain = 0
KST1 201110Z 21003KT 20/16 A2983 RMK A01 T02010163  RH  081%=      5-min Rain = 0
KST1 201115Z 21004KT 21/16 A2984 RMK A01 T02050163  RH  079%=      5-min Rain = 0
KST1 201120Z 21005KT 21/16 A2984 RMK A01 T02080164  RH  078%=      5-min Rain = 0
KST1 201125Z 21005KT 21/16 A2984 RMK A01 T02060163  RH  078%=      5-min Rain = 0
KST1 201130Z 21006KT 21/16 A2984 RMK A01 T02080164  RH  078%=      5-min Rain = 0
KST1 201135Z 22006KT 20/16 A2984 RMK A01 T02030160  RH  078%=      5-min Rain = 0
KST1 201140Z 22006KT 20/16 A2984 RMK A01 T01970157  RH  079%=      5-min Rain = 0
KST1 201145Z 22005KT 20/16 A2984 RMK A01 T01980160  RH  081%=      5-min Rain = 0
KST1 201150Z 22006KT 20/16 A2985 RMK A01 T01990163  RH  082%=      5-min Rain = 0
KST1 201155Z 22006KT 20/17 A2985 RMK A01 T02020165  RH  081%=      5-min Rain = 0
KST1 201200Z 23006KT 19/16 A2985 RMK A01 T01930155  RH  081%=      5-min Rain = 0
KST1 201205Z 23006KT 19/16 A2985 RMK A01 T01890155  RH  082%=      5-min Rain = 0
KST1 201210Z 24005KT 19/16 A2985 RMK A01 T01900156  RH  082%=      5-min Rain = 0
KST1 201215Z 23005KT 19/16 A2986 RMK A01 T01920157  RH  082%=      5-min Rain = 0
KST1 201220Z 23005KT 19/16 A2986 RMK A01 T01940158  RH  082%=      5-min Rain = 0
KST1 201225Z 23005KT 20/16 A2986 RMK A01 T01950157  RH  081%=      5-min Rain = 0
KST1 201230Z 23006KT 20/16 A2986 RMK A01 T01960157  RH  080%=      5-min Rain = 0
KST1 201235Z 23007KT 20/16 A2986 RMK A01 T01980159  RH  080%=      5-min Rain = 0
KST1 201240Z 23008KT 21/16 A2986 RMK A01 T02050164  RH  079%=      5-min Rain = 0
KST1 201245Z 22008KT 21/17 A2986 RMK A01 T02120168  RH  078%=      5-min Rain = 0
KST1 201250Z 22007KT 22/17 A2986 RMK A01 T02180170  RH  076%=      5-min Rain = 0
KST1 201255Z 22007KT 22/17 A2986 RMK A01 T02220172  RH  075%=      5-min Rain = 0
KST1 201300Z 22008KT 23/17 A2986 RMK A01 T02270172  RH  073%=      5-min Rain = 0
KST1 201305Z 23008KT 23/17 A2986 RMK A01 T02330172  RH  070%=      5-min Rain = 0
KST1 201310Z 22009KT 24/17 A2987 RMK A01 T02380170  RH  067%=      5-min Rain = 0
KST1 201315Z 22008KT 25/17 A2987 RMK A01 T02450171  RH  065%=      5-min Rain = 0
KST1 201320Z 22009KT 25/17 A2987 RMK A01 T02510170  RH  062%=      5-min Rain = 0
KST1 201325Z 22009KT 26/17 A2987 RMK A01 T02580168  RH  059%=      5-min Rain = 0
KST1 201330Z 23009KT 26/17 A2987 RMK A01 T02640167  RH  057%=      5-min Rain = 0
KST1 201335Z 23010KT 27/16 A2987 RMK A01 T02690164  RH  054%=      5-min Rain = 0
KST1 201340Z 23010KT 27/16 A2987 RMK A01 T02730163  RH  052%=      5-min Rain = 0
KST1 201350Z 22008KT 28/16 A2987 RMK A01 T02820159  RH  049%=      5-min Rain = 0
KST1 201355Z 23008KT 29/16 A2987 RMK A01 T02870156  RH  046%=      5-min Rain = 0
KST1 201400Z 23008KT 29/15 A2987 RMK A01 T02930150  RH  043%=      5-min Rain = 0
KST1 201405Z 23008KT 30/15 A2987 RMK A01 T02980146  RH  041%=      5-min Rain = 0
KST1 201410Z 22009KT 30/14 A2987 RMK A01 T03030140  RH  038%=      5-min Rain = 0
KST1 201415Z 22010KT 31/14 A2987 RMK A01 T03050137  RH  037%=      5-min Rain = 0
KST1 201420Z 23009KT 31/13 A2987 RMK A01 T03080134  RH  035%=      5-min Rain = 0
KST1 201425Z 23010KT 31/13 A2987 RMK A01 T03140126  RH  032%=      5-min Rain = 0
KST1 201430Z 22012KT 32/12 A2987 RMK A01 T03180120  RH  030%=      5-min Rain = 0
KST1 201435Z 23012KT 32/12 A2987 RMK A01 T03190117  RH  030%=      5-min Rain = 0
KST1 201440Z 22012KT 32/11 A2987 RMK A01 T03220111  RH  028%=      5-min Rain = 0
KST1 201445Z 23012KT 33/09 A2987 RMK A01 T03260092  RH  024%=      5-min Rain = 0
KST1 201450Z 24012KT 33/08 A2987 RMK A01 T03280083  RH  022%=      5-min Rain = 0
KST1 201455Z 24013KT 33/07 A2987 RMK A01 T03320065  RH  019%=      5-min Rain = 0
KST1 201500Z 24012KT 33/06 A2987 RMK A01 T03330059  RH  018%=      5-min Rain = 0
KST1 201505Z 24011KT 34/06 A2987 RMK A01 T03350058  RH  018%=      5-min Rain = 0
KST1 201510Z 23012KT 34/06 A2987 RMK A01 T03370056  RH  018%=      5-min Rain = 0
KST1 201515Z 24012KT 34/05 A2987 RMK A01 T03390050  RH  017%=      5-min Rain = 0
KST1 201520Z 24014KT 34/05 A2987 RMK A01 T03420047  RH  016%=      5-min Rain = 0
KST1 201525Z 24014G19KT 34/05 A2987 RMK A01 T03440054  RH  017%=      5-min Rain = 0
KST1 201530Z 24013G18KT 34/06 A2987 RMK A01 T03440057  RH  017%=      5-min Rain = 0
KST1 201535Z 23013KT 35/06 A2986 RMK A01 T03490058  RH  017%=      5-min Rain = 0
KST1 201540Z 23014KT 35/06 A2986 RMK A01 T03480056  RH  017%=      5-min Rain = 0
KST1 201545Z 23015G20KT 35/05 A2986 RMK A01 T03480051  RH  016%=      5-min Rain = 0
KST1 201550Z 24014G19KT 35/05 A2986 RMK A01 T03490047  RH  015%=      5-min Rain = 0
KST1 201555Z 23015G20KT 35/05 A2986 RMK A01 T03520047  RH  015%=      5-min Rain = 0
KST1 201600Z 23015KT 35/05 A2986 RMK A01 T03510046  RH  015%=      5-min Rain = 0
KST1 201605Z 23015G20KT 35/04 A2986 RMK A01 T03520036  RH  014%=      5-min Rain = 0
KST1 201610Z 23016KT 36/01 A2986 RMK A01 T03580014  RH  012%=      5-min Rain = 0
KST1 201615Z 24015KT 36/01 A2986 RMK A01 T03580007  RH  011%=      5-min Rain = 0
KST1 201620Z 23018KT 36/M00 A2986 RMK A01 T03631003  RH  010%=      5-min Rain = 0
KST1 201625Z 24017KT 36/00 A2986 RMK A01 T03640000  RH  010%=      5-min Rain = 0
KST1 201630Z 25016KT 36/00 A2986 RMK A01 T03630000  RH  010%=      5-min Rain = 0
KST1 201635Z 25018KT 37/M01 A2986 RMK A01 T03671008  RH  009%=      5-min Rain = 0
KST1 201640Z 25016KT 37/M01 A2986 RMK A01 T03661005  RH  010%=      5-min Rain = 0
KST1 201645Z 25015KT 37/00 A2986 RMK A01 T036700-0  RH  010%=      5-min Rain = 0
KST1 201650Z 25014G19KT 37/M01 A2986 RMK A01 T03701006  RH  009%=      5-min Rain = 0
KST1 201655Z 23015KT 37/M01 A2986 RMK A01 T03711013  RH  009%=      5-min Rain = 0
KST1 201700Z 24016G22KT 37/M02 A2986 RMK A01 T03721020  RH  008%=      5-min Rain = 0
KST1 201705Z 24015G20KT 37/M02 A2986 RMK A01 T03731020  RH  008%=      5-min Rain = 0
KST1 201710Z 24015KT 37/M01 A2986 RMK A01 T03741013  RH  009%=      5-min Rain = 0
KST1 201715Z 24016KT 38/M02 A2986 RMK A01 T03771017  RH  008%=      5-min Rain = 0
KST1 201720Z 23012G17KT 38/M02 A2986 RMK A01 T03751016  RH  009%=      5-min Rain = 0
KST1 201725Z 24013KT 38/M02 A2986 RMK A01 T03801017  RH  008%=      5-min Rain = 0
KST1 201730Z 23014KT 38/M02 A2986 RMK A01 T03821019  RH  008%=      5-min Rain = 0
KST1 201735Z 24012G18KT 38/M02 A2986 RMK A01 T03801015  RH  008%=      5-min Rain = 0
KST1 201740Z 23012G19KT 39/M02 A2985 RMK A01 T03851017  RH  008%=      5-min Rain = 0
KST1 201745Z 24016KT 39/M02 A2985 RMK A01 T03891017  RH  008%=      5-min Rain = 0
KST1 201750Z 25015KT 38/M02 A2985 RMK A01 T03831019  RH  008%=      5-min Rain = 0
KST1 201755Z 22014KT 39/M02 A2985 RMK A01 T03881023  RH  008%=      5-min Rain = 0
KST1 201800Z 23014KT 39/M02 A2985 RMK A01 T03871023  RH  008%=      5-min Rain = 0
KST1 201805Z 24013G20KT 39/M02 A2985 RMK A01 T03891021  RH  008%=      5-min Rain = 0
KST1 201810Z 21012G19KT 39/M02 A2985 RMK A01 T03871024  RH  008%=      5-min Rain = 0
KST1 201815Z 21014G19KT 40/M04 A2985 RMK A01 T03951036  RH  007%=      5-min Rain = 0
KST1 201820Z 21015KT 39/M04 A2985 RMK A01 T03921042  RH  006%=      5-min Rain = 0
KST1 201825Z 22015G22KT 39/M04 A2985 RMK A01 T03911042  RH  006%=      5-min Rain = 0
KST1 201830Z 21016G24KT 40/M04 A2984 RMK A01 T03961036  RH  007%=      5-min Rain = 0
KST1 201835Z 23019G27KT 39/M05 A2984 RMK A01 T03941048  RH  006%=      5-min Rain = 0
KST1 201840Z 24018KT 40/M05 A2984 RMK A01 T03951050  RH  006%=      5-min Rain = 0
KST1 201845Z 25017G23KT 40/M05 A2984 RMK A01 T04001049  RH  006%=      5-min Rain = 0
KST1 201850Z 23019G25KT 40/M04 A2984 RMK A01 T04011044  RH  006%=      5-min Rain = 0
KST1 201855Z 23016G23KT 40/M04 A2983 RMK A01 T03971043  RH  006%=      5-min Rain = 0
KST1 201900Z 23018G25KT 40/M05 A2983 RMK A01 T04011045  RH  006%=      5-min Rain = 0
KST1 201905Z 24015KT 40/M04 A2983 RMK A01 T03981043  RH  006%=      5-min Rain = 0
KST1 201910Z 22018G23KT 40/M04 A2983 RMK A01 T04001038  RH  006%=      5-min Rain = 0
KST1 201915Z 24015G22KT 40/M04 A2983 RMK A01 T03961037  RH  007%=      5-min Rain = 0
KST1 201920Z 22020G29KT 41/M03 A2982 RMK A01 T04051030  RH  007%=      5-min Rain = 0
KST1 201925Z 25015G23KT 40/M03 A2982 RMK A01 T03991030  RH  007%=      5-min Rain = 0
KST1 201930Z 23017G22KT 41/M03 A2982 RMK A01 T04061027  RH  007%=      5-min Rain = 0
KST1 201935Z 24017KT 40/M03 A2982 RMK A01 T04031028  RH  007%=      5-min Rain = 0
KST1 201940Z 26016G22KT 40/M03 A2982 RMK A01 T04041028  RH  007%=      5-min Rain = 0
KST1 201945Z 24018G26KT 40/M03 A2982 RMK A01 T04041028  RH  007%=      5-min Rain = 0
KST1 201950Z 24013G19KT 41/M03 A2982 RMK A01 T04051029  RH  007%=      5-min Rain = 0
KST1 201955Z 25015KT 41/M03 A2982 RMK A01 T04131026  RH  006%=      5-min Rain = 0
KST1 202000Z 25020G29KT 41/M03 A2981 RMK A01 T04071031  RH  006%=      5-min Rain = 0
KST1 202005Z 25020G27KT 41/M03 A2981 RMK A01 T04061032  RH  006%=      5-min Rain = 0
KST1 202010Z 26014G22KT 41/M03 A2981 RMK A01 T04071030  RH  006%=      5-min Rain = 0
KST1 202015Z 25019G25KT 41/M03 A2981 RMK A01 T04081031  RH  006%=      5-min Rain = 0
KST1 202020Z 26015G20KT 41/M03 A2981 RMK A01 T04051031  RH  006%=      5-min Rain = 0
KST1 202025Z 25017G23KT 41/M03 A298 RMK A01 T04141027  RH  006%=      5-min Rain = 0
KST1 202030Z 23018G24KT 41/M03 A298 RMK A01 T04111030  RH  006%=      5-min Rain = 0
KST1 202035Z 25018G26KT 41/M03 A298 RMK A01 T04071030  RH  006%=      5-min Rain = 0
KST1 202040Z 27014G22KT 41/M03 A298 RMK A01 T04121027  RH  006%=      5-min Rain = 0
KST1 202045Z 23018G28KT 41/M03 A298 RMK A01 T04101029  RH  006%=      5-min Rain = 0
KST1 202050Z 22013G22KT 41/M03 A298 RMK A01 T04071030  RH  007%=      5-min Rain = 0
KST1 202055Z 25020G27KT 41/M03 A2979 RMK A01 T04131029  RH  006%=      5-min Rain = 0
KST1 202100Z 25019G25KT 41/M03 A298 RMK A01 T04111033  RH  006%=      5-min Rain = 0
KST1 202105Z 24017G24KT 41/M03 A2979 RMK A01 T04091032  RH  006%=      5-min Rain = 0
KST1 202110Z 25014G21KT 41/M03 A2979 RMK A01 T04071030  RH  006%=      5-min Rain = 0
KST1 202115Z 26014G21KT 41/M03 A2979 RMK A01 T04101028  RH  006%=      5-min Rain = 0
KST1 202120Z 26009G15KT 40/M03 A2979 RMK A01 T04041027  RH  007%=      5-min Rain = 0
KST1 202125Z 25017G26KT 41/M03 A2979 RMK A01 T04101027  RH  007%=      5-min Rain = 0
KST1 202130Z 25017G25KT 41/M03 A2978 RMK A01 T04101029  RH  006%=      5-min Rain = 0
KST1 202135Z 23015G21KT 41/M03 A2978 RMK A01 T04091028  RH  006%=      5-min Rain = 0
KST1 202140Z 22012G19KT 40/M03 A2978 RMK A01 T03951031  RH  007%=      5-min Rain = 0
KST1 202145Z 23011G17KT 40/M03 A2978 RMK A01 T04021028  RH  007%=      5-min Rain = 0
KST1 202150Z 22014G22KT 41/M03 A2978 RMK A01 T04061030  RH  006%=      5-min Rain = 0
KST1 202155Z 22021G28KT 41/M04 A2977 RMK A01 T04091037  RH  006%=      5-min Rain = 0
KST1 202200Z 22018G25KT 41/M04 A2978 RMK A01 T04071036  RH  006%=      5-min Rain = 0
KST1 202205Z 22015G23KT 41/M04 A2977 RMK A01 T04051038  RH  006%=      5-min Rain = 0
KST1 202210Z 23020G28KT 41/M04 A2977 RMK A01 T04111036  RH  006%=      5-min Rain = 0
KST1 202215Z 20016G21KT 41/M04 A2978 RMK A01 T04071035  RH  006%=      5-min Rain = 0
KST1 202220Z 20012G17KT 40/M04 A2977 RMK A01 T04031037  RH  006%=      5-min Rain = 0
KST1 202225Z 24018G23KT 41/M04 A2977 RMK A01 T04071036  RH  006%=      5-min Rain = 0
KST1 202230Z 22015G21KT 41/M04 A2977 RMK A01 T04071035  RH  006%=      5-min Rain = 0
KST1 202235Z 23014KT 41/M03 A2977 RMK A01 T04071034  RH  006%=      5-min Rain = 0
KST1 202240Z 23016G22KT 41/M03 A2977 RMK A01 T04081031  RH  006%=      5-min Rain = 0
KST1 202245Z 22018G25KT 40/M03 A2977 RMK A01 T04041031  RH  007%=      5-min Rain = 0
KST1 202250Z 21011KT 40/M03 A2977 RMK A01 T04001032  RH  007%=      5-min Rain = 0
KST1 202255Z 23020G27KT 41/M04 A2976 RMK A01 T04061036  RH  006%=      5-min Rain = 0
KST1 202300Z 23018KT 41/M04 A2976 RMK A01 T04061040  RH  006%=      5-min Rain = 0
KST1 202305Z 25015KT 40/M04 A2976 RMK A01 T04041036  RH  006%=      5-min Rain = 0
KST1 202310Z 24013KT 41/M04 A2976 RMK A01 T04051036  RH  006%=      5-min Rain = 0
KST1 202315Z 24011G17KT 40/M04 A2976 RMK A01 T04031041  RH  006%=      5-min Rain = 0
KST1 202320Z 23016G21KT 41/M04 A2976 RMK A01 T04061035  RH  006%=      5-min Rain = 0
KST1 202325Z 23018G23KT 40/M04 A2976 RMK A01 T04031035  RH  006%=      5-min Rain = 0
KST1 202330Z 24014G21KT 40/M04 A2976 RMK A01 T04021036  RH  006%=      5-min Rain = 0
KST1 202335Z 23014G23KT 41/M03 A2975 RMK A01 T04051034  RH  006%=      5-min Rain = 0
KST1 202340Z 23012G17KT 40/M04 A2975 RMK A01 T04031036  RH  006%=      5-min Rain = 0
KST1 202345Z 22011G16KT 40/M04 A2975 RMK A01 T04021036  RH  006%=      5-min Rain = 0
KST1 202350Z 21009KT 40/M04 A2975 RMK A01 T04001035  RH  006%=      5-min Rain = 0
KST1 202355Z 23013G18KT 40/M04 A2975 RMK A01 T04031035  RH  006%=      5-min Rain = 0
KST1 210000Z 25012KT 40/M04 A2975 RMK A01 T04021038  RH  006%=      5-min Rain = 0
KST1 210005Z 24012KT 40/M04 A2975 RMK A01 T03991038  RH  006%=      5-min Rain = 0
KST1 210010Z 24013G20KT 40/M03 A2975 RMK A01 T03991033  RH  007%=      5-min Rain = 0
KST1 210015Z 24015G21KT 40/M03 A2975 RMK A01 T03971034  RH  007%=      5-min Rain = 0
KST1 210020Z 24017KT 40/M04 A2975 RMK A01 T03951038  RH  007%=      5-min Rain = 0
KST1 210025Z 23016KT 40/M04 A2975 RMK A01 T03951037  RH  007%=      5-min Rain = 0
KST1 210030Z 23011KT 39/M04 A2975 RMK A01 T03941036  RH  007%=      5-min Rain = 0
KST1 210035Z 22012G19KT 39/M03 A2975 RMK A01 T03941031  RH  007%=      5-min Rain = 0
KST1 210040Z 18012G19KT 39/04 A2976 RMK A01 T03880039  RH  012%=      5-min Rain = 0
KST1 210045Z 20013G19KT 38/05 A2976 RMK A01 T03790051  RH  014%=      5-min Rain = 0
KST1 210050Z 19015G22KT 38/06 A2976 RMK A01 T03780059  RH  014%=      5-min Rain = 0
KST1 210055Z 20016G24KT 38/06 A2976 RMK A01 T03800056  RH  014%=      5-min Rain = 0
KST1 210100Z 18019G26KT 38/08 A2976 RMK A01 T03750081  RH  017%=      5-min Rain = 0
KST1 210105Z 18023G29KT 37/08 A2976 RMK A01 T03730084  RH  018%=      5-min Rain = 0
KST1 210110Z 18022G27KT 37/08 A2976 RMK A01 T03700084  RH  018%=      5-min Rain = 0
KST1 210115Z 18020G26KT 37/09 A2976 RMK A01 T03680085  RH  018%=      5-min Rain = 0
KST1 210120Z 18020G25KT 37/09 A2976 RMK A01 T03660094  RH  020%=      5-min Rain = 0
KST1 210125Z 18022G29KT 36/13 A2976 RMK A01 T03600132  RH  026%=      5-min Rain = 0
KST1 210130Z 17021G27KT 36/14 A2977 RMK A01 T03570136  RH  027%=      5-min Rain = 0
KST1 210135Z 18022G29KT 36/14 A2977 RMK A01 T03550136  RH  027%=      5-min Rain = 0
KST1 210140Z 18021KT 35/14 A2977 RMK A01 T03520137  RH  028%=      5-min Rain = 0
KST1 210145Z 18020KT 35/14 A2977 RMK A01 T03500137  RH  028%=      5-min Rain = 0
KST1 210150Z 18019G24KT 35/14 A2977 RMK A01 T03470137  RH  029%=      5-min Rain = 0
KST1 210155Z 17020KT 35/14 A2977 RMK A01 T03450135  RH  029%=      5-min Rain = 0
KST1 210200Z 18019G24KT 34/13 A2978 RMK A01 T03430132  RH  029%=      5-min Rain = 0
KST1 210205Z 17018G24KT 34/13 A2977 RMK A01 T03410130  RH  028%=      5-min Rain = 0
KST1 210210Z 17018KT 34/13 A2978 RMK A01 T03390129  RH  029%=      5-min Rain = 0
KST1 210215Z 17018KT 34/13 A2978 RMK A01 T03370129  RH  029%=      5-min Rain = 0
KST1 210220Z 17017KT 34/13 A2978 RMK A01 T03350132  RH  030%=      5-min Rain = 0
KST1 210225Z 17017KT 33/14 A2979 RMK A01 T03330136  RH  031%=      5-min Rain = 0
KST1 210230Z 17017KT 33/15 A2979 RMK A01 T03310145  RH  033%=      5-min Rain = 0
KST1 210235Z 17017G23KT 33/15 A2979 RMK A01 T03290149  RH  035%=      5-min Rain = 0
KST1 210240Z 18016G21KT 33/15 A2979 RMK A01 T03270152  RH  036%=      5-min Rain = 0
KST1 210245Z 18015KT 33/15 A2979 RMK A01 T03260154  RH  036%=      5-min Rain = 0
KST1 210250Z 18018KT 33/16 A298 RMK A01 T03250156  RH  037%=      5-min Rain = 0
KST1 210255Z 18018KT 32/16 A298 RMK A01 T03240156  RH  037%=      5-min Rain = 0
KST1 210300Z 18020G25KT 32/16 A298 RMK A01 T03230157  RH  038%=      5-min Rain = 0
KST1 210305Z 18022G28KT 32/16 A298 RMK A01 T03210159  RH  039%=      5-min Rain = 0
KST1 210310Z 18019G25KT 32/16 A298 RMK A01 T03190160  RH  039%=      5-min Rain = 0
KST1 210315Z 18018G23KT 32/16 A298 RMK A01 T03170162  RH  040%=      5-min Rain = 0
KST1 210320Z 18018G23KT 32/16 A2981 RMK A01 T03150164  RH  041%=      5-min Rain = 0
KST1 210325Z 18017KT 31/17 A2981 RMK A01 T03130166  RH  042%=      5-min Rain = 0
KST1 210330Z 18018G23KT 31/17 A2981 RMK A01 T03120168  RH  043%=      5-min Rain = 0
KST1 210335Z 18017KT 31/17 A2981 RMK A01 T03100169  RH  044%=      5-min Rain = 0
KST1 210340Z 18017KT 31/17 A2981 RMK A01 T03090168  RH  044%=      5-min Rain = 0
KST1 210345Z 18016G22KT 31/17 A2981 RMK A01 T03070168  RH  044%=      5-min Rain = 0
KST1 210350Z 18017G23KT 31/17 A2982 RMK A01 T03060168  RH  044%=      5-min Rain = 0
KST1 210355Z 18016G21KT 31/16 A2982 RMK A01 T03050164  RH  044%=      5-min Rain = 0
KST1 210400Z 18019G25KT 31/16 A2982 RMK A01 T03050160  RH  043%=      5-min Rain = 0
KST1 210405Z 18018KT 30/16 A2982 RMK A01 T03040158  RH  042%=      5-min Rain = 0
KST1 210410Z 18016G21KT 30/16 A2982 RMK A01 T03020155  RH  042%=      5-min Rain = 0
KST1 210415Z 18015KT 30/15 A2982 RMK A01 T03000151  RH  041%=      5-min Rain = 0
KST1 210420Z 18017KT 30/15 A2982 RMK A01 T03000149  RH  041%=      5-min Rain = 0
KST1 210425Z 18016G21KT 30/15 A2982 RMK A01 T02990146  RH  040%=      5-min Rain = 0
KST1 210430Z 18018KT 30/15 A2983 RMK A01 T02990147  RH  040%=      5-min Rain = 0
KST1 210435Z 18016KT 30/15 A2983 RMK A01 T02970149  RH  041%=      5-min Rain = 0
KST1 210440Z 18016G21KT 30/15 A2982 RMK A01 T02960152  RH  043%=      5-min Rain = 0
KST1 210445Z 18017G22KT 29/16 A2982 RMK A01 T02940155  RH  044%=      5-min Rain = 0
KST1 210450Z 18018G25KT 29/16 A2983 RMK A01 T02940157  RH  044%=      5-min Rain = 0
KST1 210455Z 18018KT 29/16 A2983 RMK A01 T02930158  RH  045%=      5-min Rain = 0

Page generated in 0.0095 seconds.